sensor_id;sensor_type;location;lat;lon;timestamp;temperature;humidity
18365;DHT22;9309;52.126;11.616;2022-11-11T00:02:34;7.40;87.60
18365;DHT22;9309;52.126;11.616;2022-11-11T00:05:19;7.30;88.20
18365;DHT22;9309;52.126;11.616;2022-11-11T00:08:06;7.30;88.40
18365;DHT22;9309;52.126;11.616;2022-11-11T00:10:52;7.30;88.80
18365;DHT22;9309;52.126;11.616;2022-11-11T00:13:38;7.50;87.30
18365;DHT22;9309;52.126;11.616;2022-11-11T00:16:24;7.40;87.30
18365;DHT22;9309;52.126;11.616;2022-11-11T00:19:29;7.50;87.30
18365;DHT22;9309;52.126;11.616;2022-11-11T00:22:32;7.60;86.70
18365;DHT22;9309;52.126;11.616;2022-11-11T00:25:37;7.60;86.60
18365;DHT22;9309;52.126;11.616;2022-11-11T00:28:22;7.50;87.30
18365;DHT22;9309;52.126;11.616;2022-11-11T00:31:10;7.50;87.40
18365;DHT22;9309;52.126;11.616;2022-11-11T00:33:56;7.50;86.60
18365;DHT22;9309;52.126;11.616;2022-11-11T00:36:41;7.40;87.10
18365;DHT22;9309;52.126;11.616;2022-11-11T00:39:26;7.50;86.80
18365;DHT22;9309;52.126;11.616;2022-11-11T00:42:12;7.40;87.10
18365;DHT22;9309;52.126;11.616;2022-11-11T00:44:58;7.50;87.10
18365;DHT22;9309;52.126;11.616;2022-11-11T00:47:43;7.40;87.00
18365;DHT22;9309;52.126;11.616;2022-11-11T00:50:47;7.40;86.80
18365;DHT22;9309;52.126;11.616;2022-11-11T00:53:42;7.30;87.50
18365;DHT22;9309;52.126;11.616;2022-11-11T00:56:28;7.30;87.80
18365;DHT22;9309;52.126;11.616;2022-11-11T00:59:14;7.20;88.60
18365;DHT22;9309;52.126;11.616;2022-11-11T01:02:00;7.40;87.40
18365;DHT22;9309;52.126;11.616;2022-11-11T01:04:45;7.40;87.10
18365;DHT22;9309;52.126;11.616;2022-11-11T01:07:31;7.40;86.60
18365;DHT22;9309;52.126;11.616;2022-11-11T01:10:17;7.50;86.40
18365;DHT22;9309;52.126;11.616;2022-11-11T01:13:22;7.40;86.50
18365;DHT22;9309;52.126;11.616;2022-11-11T01:16:12;7.40;86.00
18365;DHT22;9309;52.126;11.616;2022-11-11T01:18:58;7.20;87.30
18365;DHT22;9309;52.126;11.616;2022-11-11T01:21:43;7.10;87.10
18365;DHT22;9309;52.126;11.616;2022-11-11T01:24:29;7.10;86.90
18365;DHT22;9309;52.126;11.616;2022-11-11T01:27:14;7.10;87.20
18365;DHT22;9309;52.126;11.616;2022-11-11T01:30:00;7.00;87.80
18365;DHT22;9309;52.126;11.616;2022-11-11T01:32:47;6.90;87.80
18365;DHT22;9309;52.126;11.616;2022-11-11T01:35:37;6.90;88.50
18365;DHT22;9309;52.126;11.616;2022-11-11T01:38:22;6.90;88.30
18365;DHT22;9309;52.126;11.616;2022-11-11T01:41:11;7.00;88.50
18365;DHT22;9309;52.126;11.616;2022-11-11T01:44:39;6.80;89.40
18365;DHT22;9309;52.126;11.616;2022-11-11T01:47:25;6.90;88.80
18365;DHT22;9309;52.126;11.616;2022-11-11T01:50:32;6.80;89.40
18365;DHT22;9309;52.126;11.616;2022-11-11T01:53:16;6.90;89.10
18365;DHT22;9309;52.126;11.616;2022-11-11T01:56:03;7.00;88.80
18365;DHT22;9309;52.126;11.616;2022-11-11T01:58:51;7.00;88.80
18365;DHT22;9309;52.126;11.616;2022-11-11T02:01:38;7.00;88.60
18365;DHT22;9309;52.126;11.616;2022-11-11T02:04:24;7.10;88.40
18365;DHT22;9309;52.126;11.616;2022-11-11T02:07:31;7.10;88.60
18365;DHT22;9309;52.126;11.616;2022-11-11T02:10:21;7.20;87.90
18365;DHT22;9309;52.126;11.616;2022-11-11T02:13:11;7.20;88.10
18365;DHT22;9309;52.126;11.616;2022-11-11T02:16:15;7.20;87.90
18365;DHT22;9309;52.126;11.616;2022-11-11T02:19:00;7.10;88.20
18365;DHT22;9309;52.126;11.616;2022-11-11T02:21:50;7.10;88.40
18365;DHT22;9309;52.126;11.616;2022-11-11T02:24:38;7.10;88.30
18365;DHT22;9309;52.126;11.616;2022-11-11T02:27:28;7.00;88.50
18365;DHT22;9309;52.126;11.616;2022-11-11T02:30:14;6.90;89.20
18365;DHT22;9309;52.126;11.616;2022-11-11T02:33:00;6.90;89.60
18365;DHT22;9309;52.126;11.616;2022-11-11T02:35:49;7.00;89.10
18365;DHT22;9309;52.126;11.616;2022-11-11T02:38:40;7.10;87.60
18365;DHT22;9309;52.126;11.616;2022-11-11T02:41:26;7.30;87.00
18365;DHT22;9309;52.126;11.616;2022-11-11T02:44:29;7.20;86.60
18365;DHT22;9309;52.126;11.616;2022-11-11T02:47:15;7.10;86.80
18365;DHT22;9309;52.126;11.616;2022-11-11T02:50:00;7.00;87.50
18365;DHT22;9309;52.126;11.616;2022-11-11T02:52:46;6.90;88.20
18365;DHT22;9309;52.126;11.616;2022-11-11T02:55:31;7.10;87.20
18365;DHT22;9309;52.126;11.616;2022-11-11T02:58:18;7.10;87.10
18365;DHT22;9309;52.126;11.616;2022-11-11T03:01:04;7.00;87.10
18365;DHT22;9309;52.126;11.616;2022-11-11T03:03:49;6.90;87.70
18365;DHT22;9309;52.126;11.616;2022-11-11T03:06:34;7.00;87.10
18365;DHT22;9309;52.126;11.616;2022-11-11T03:09:20;6.90;87.60
18365;DHT22;9309;52.126;11.616;2022-11-11T03:12:06;6.90;87.60
18365;DHT22;9309;52.126;11.616;2022-11-11T03:14:52;6.90;87.70
18365;DHT22;9309;52.126;11.616;2022-11-11T03:17:38;6.80;88.00
18365;DHT22;9309;52.126;11.616;2022-11-11T03:20:23;6.90;88.00
18365;DHT22;9309;52.126;11.616;2022-11-11T03:23:26;6.90;87.70
18365;DHT22;9309;52.126;11.616;2022-11-11T03:26:11;7.10;86.60
18365;DHT22;9309;52.126;11.616;2022-11-11T03:28:58;7.10;86.40
18365;DHT22;9309;52.126;11.616;2022-11-11T03:31:45;7.10;86.70
18365;DHT22;9309;52.126;11.616;2022-11-11T03:38:18;7.00;86.70
18365;DHT22;9309;52.126;11.616;2022-11-11T03:41:07;6.50;88.90
18365;DHT22;9309;52.126;11.616;2022-11-11T03:43:53;6.30;89.70
18365;DHT22;9309;52.126;11.616;2022-11-11T03:46:38;6.30;90.20
18365;DHT22;9309;52.126;11.616;2022-11-11T03:49:25;6.40;89.30
18365;DHT22;9309;52.126;11.616;2022-11-11T03:52:11;6.40;89.30
18365;DHT22;9309;52.126;11.616;2022-11-11T03:54:57;6.40;89.60
18365;DHT22;9309;52.126;11.616;2022-11-11T03:57:43;6.60;88.70
18365;DHT22;9309;52.126;11.616;2022-11-11T04:00:29;6.80;87.40
18365;DHT22;9309;52.126;11.616;2022-11-11T04:03:17;6.90;86.40
18365;DHT22;9309;52.126;11.616;2022-11-11T04:06:20;6.90;86.50
18365;DHT22;9309;52.126;11.616;2022-11-11T04:09:23;6.80;86.40
18365;DHT22;9309;52.126;11.616;2022-11-11T04:12:28;6.70;87.50
18365;DHT22;9309;52.126;11.616;2022-11-11T04:15:14;6.60;88.40
18365;DHT22;9309;52.126;11.616;2022-11-11T04:18:17;6.60;88.40
18365;DHT22;9309;52.126;11.616;2022-11-11T04:21:25;6.50;88.80
18365;DHT22;9309;52.126;11.616;2022-11-11T04:24:27;6.60;88.60
18365;DHT22;9309;52.126;11.616;2022-11-11T04:27:30;6.70;88.30
18365;DHT22;9309;52.126;11.616;2022-11-11T04:30:16;6.60;88.70
18365;DHT22;9309;52.126;11.616;2022-11-11T04:33:00;6.70;88.50
18365;DHT22;9309;52.126;11.616;2022-11-11T04:35:48;6.70;88.50
18365;DHT22;9309;52.126;11.616;2022-11-11T04:38:34;6.90;87.80
18365;DHT22;9309;52.126;11.616;2022-11-11T04:41:38;6.90;87.20
18365;DHT22;9309;52.126;11.616;2022-11-11T04:44:23;6.90;87.90
18365;DHT22;9309;52.126;11.616;2022-11-11T04:47:26;7.10;86.70
18365;DHT22;9309;52.126;11.616;2022-11-11T04:50:12;6.90;86.80
18365;DHT22;9309;52.126;11.616;2022-11-11T04:52:58;6.80;88.00
18365;DHT22;9309;52.126;11.616;2022-11-11T04:55:45;7.10;86.90
18365;DHT22;9309;52.126;11.616;2022-11-11T04:58:48;7.10;86.80
18365;DHT22;9309;52.126;11.616;2022-11-11T05:01:54;7.20;85.70
18365;DHT22;9309;52.126;11.616;2022-11-11T05:04:57;7.10;86.50
18365;DHT22;9309;52.126;11.616;2022-11-11T05:07:42;7.10;86.30
18365;DHT22;9309;52.126;11.616;2022-11-11T05:10:47;7.10;86.00
18365;DHT22;9309;52.126;11.616;2022-11-11T05:13:32;7.10;86.40
18365;DHT22;9309;52.126;11.616;2022-11-11T05:16:38;7.20;85.30
18365;DHT22;9309;52.126;11.616;2022-11-11T05:19:42;7.30;85.00
18365;DHT22;9309;52.126;11.616;2022-11-11T05:22:45;7.30;85.00
18365;DHT22;9309;52.126;11.616;2022-11-11T05:25:31;7.10;85.60
18365;DHT22;9309;52.126;11.616;2022-11-11T05:28:18;7.10;86.10
18365;DHT22;9309;52.126;11.616;2022-11-11T05:31:04;7.20;85.40
18365;DHT22;9309;52.126;11.616;2022-11-11T05:33:49;7.20;85.60
18365;DHT22;9309;52.126;11.616;2022-11-11T05:36:34;7.10;85.90
18365;DHT22;9309;52.126;11.616;2022-11-11T05:39:20;7.00;86.70
18365;DHT22;9309;52.126;11.616;2022-11-11T05:42:05;7.10;86.50
18365;DHT22;9309;52.126;11.616;2022-11-11T05:44:52;7.30;85.60
18365;DHT22;9309;52.126;11.616;2022-11-11T05:47:37;7.40;85.30
18365;DHT22;9309;52.126;11.616;2022-11-11T05:50:23;7.40;84.50
18365;DHT22;9309;52.126;11.616;2022-11-11T05:53:08;7.30;84.80
18365;DHT22;9309;52.126;11.616;2022-11-11T05:55:54;7.50;84.00
18365;DHT22;9309;52.126;11.616;2022-11-11T05:58:39;7.30;84.70
18365;DHT22;9309;52.126;11.616;2022-11-11T06:01:27;7.20;85.50
18365;DHT22;9309;52.126;11.616;2022-11-11T06:04:12;7.10;85.70
18365;DHT22;9309;52.126;11.616;2022-11-11T06:06:58;7.20;85.30
18365;DHT22;9309;52.126;11.616;2022-11-11T06:09:43;7.20;85.00
18365;DHT22;9309;52.126;11.616;2022-11-11T06:12:29;7.20;85.30
18365;DHT22;9309;52.126;11.616;2022-11-11T06:15:35;7.20;84.60
18365;DHT22;9309;52.126;11.616;2022-11-11T06:18:22;6.80;86.90
18365;DHT22;9309;52.126;11.616;2022-11-11T06:21:08;6.80;87.40
18365;DHT22;9309;52.126;11.616;2022-11-11T06:23:53;7.00;86.20
18365;DHT22;9309;52.126;11.616;2022-11-11T06:26:39;7.00;86.10
18365;DHT22;9309;52.126;11.616;2022-11-11T06:29:24;6.80;87.70
18365;DHT22;9309;52.126;11.616;2022-11-11T06:32:10;6.80;87.50
18365;DHT22;9309;52.126;11.616;2022-11-11T06:34:56;6.70;88.00
18365;DHT22;9309;52.126;11.616;2022-11-11T06:37:42;6.90;87.40
18365;DHT22;9309;52.126;11.616;2022-11-11T06:40:27;6.90;86.70
18365;DHT22;9309;52.126;11.616;2022-11-11T06:43:13;6.90;87.00
18365;DHT22;9309;52.126;11.616;2022-11-11T06:45:59;7.00;86.40
18365;DHT22;9309;52.126;11.616;2022-11-11T06:48:44;6.90;86.80
18365;DHT22;9309;52.126;11.616;2022-11-11T06:51:31;7.00;86.20
18365;DHT22;9309;52.126;11.616;2022-11-11T06:54:17;6.90;87.10
18365;DHT22;9309;52.126;11.616;2022-11-11T06:57:02;7.00;87.30
18365;DHT22;9309;52.126;11.616;2022-11-11T06:59:48;7.30;85.50
18365;DHT22;9309;52.126;11.616;2022-11-11T07:02:33;7.40;84.50
18365;DHT22;9309;52.126;11.616;2022-11-11T07:05:19;7.30;85.20
18365;DHT22;9309;52.126;11.616;2022-11-11T07:08:08;7.30;85.60
18365;DHT22;9309;52.126;11.616;2022-11-11T07:10:54;7.20;85.50
18365;DHT22;9309;52.126;11.616;2022-11-11T07:13:39;7.10;86.40
18365;DHT22;9309;52.126;11.616;2022-11-11T07:16:25;7.30;86.20
18365;DHT22;9309;52.126;11.616;2022-11-11T07:19:10;7.50;84.70
18365;DHT22;9309;52.126;11.616;2022-11-11T07:21:56;7.60;84.60
18365;DHT22;9309;52.126;11.616;2022-11-11T07:24:42;7.70;83.30
18365;DHT22;9309;52.126;11.616;2022-11-11T07:27:28;7.80;83.10
18365;DHT22;9309;52.126;11.616;2022-11-11T07:30:13;7.80;82.90
18365;DHT22;9309;52.126;11.616;2022-11-11T07:32:59;7.70;83.50
18365;DHT22;9309;52.126;11.616;2022-11-11T07:35:45;8.00;82.00
18365;DHT22;9309;52.126;11.616;2022-11-11T07:38:30;8.10;81.60
18365;DHT22;9309;52.126;11.616;2022-11-11T07:41:17;8.30;80.80
18365;DHT22;9309;52.126;11.616;2022-11-11T07:44:03;8.40;80.30
18365;DHT22;9309;52.126;11.616;2022-11-11T07:46:48;8.50;80.00
18365;DHT22;9309;52.126;11.616;2022-11-11T07:49:34;8.50;79.90
18365;DHT22;9309;52.126;11.616;2022-11-11T07:52:19;8.70;79.20
18365;DHT22;9309;52.126;11.616;2022-11-11T07:55:07;8.80;79.30
18365;DHT22;9309;52.126;11.616;2022-11-11T07:57:54;9.00;78.60
18365;DHT22;9309;52.126;11.616;2022-11-11T08:00:41;9.20;77.80
18365;DHT22;9309;52.126;11.616;2022-11-11T08:03:27;9.20;77.50
18365;DHT22;9309;52.126;11.616;2022-11-11T08:06:12;9.30;77.70
18365;DHT22;9309;52.126;11.616;2022-11-11T08:08:58;9.40;77.70
18365;DHT22;9309;52.126;11.616;2022-11-11T08:11:43;9.40;77.40
18365;DHT22;9309;52.126;11.616;2022-11-11T08:14:47;9.60;77.40
18365;DHT22;9309;52.126;11.616;2022-11-11T08:17:36;9.60;76.20
18365;DHT22;9309;52.126;11.616;2022-11-11T08:20:22;9.60;76.50
18365;DHT22;9309;52.126;11.616;2022-11-11T08:23:07;9.70;76.40
18365;DHT22;9309;52.126;11.616;2022-11-11T08:25:54;9.50;76.70
18365;DHT22;9309;52.126;11.616;2022-11-11T08:28:39;9.50;77.00
18365;DHT22;9309;52.126;11.616;2022-11-11T08:31:26;9.80;76.20
18365;DHT22;9309;52.126;11.616;2022-11-11T08:34:12;9.60;75.90
18365;DHT22;9309;52.126;11.616;2022-11-11T08:36:57;9.60;76.30
18365;DHT22;9309;52.126;11.616;2022-11-11T08:39:43;9.80;75.00
18365;DHT22;9309;52.126;11.616;2022-11-11T08:42:28;9.70;75.90
18365;DHT22;9309;52.126;11.616;2022-11-11T08:45:14;10.00;74.40
18365;DHT22;9309;52.126;11.616;2022-11-11T08:48:00;9.70;75.60
18365;DHT22;9309;52.126;11.616;2022-11-11T08:50:46;9.60;76.90
18365;DHT22;9309;52.126;11.616;2022-11-11T08:53:31;9.90;75.40
18365;DHT22;9309;52.126;11.616;2022-11-11T08:56:17;10.00;76.20
18365;DHT22;9309;52.126;11.616;2022-11-11T08:59:02;10.20;74.70
18365;DHT22;9309;52.126;11.616;2022-11-11T09:01:49;10.30;74.30
18365;DHT22;9309;52.126;11.616;2022-11-11T09:04:35;10.40;72.40
18365;DHT22;9309;52.126;11.616;2022-11-11T09:07:21;10.60;72.50
18365;DHT22;9309;52.126;11.616;2022-11-11T09:10:08;10.40;72.70
18365;DHT22;9309;52.126;11.616;2022-11-11T09:12:55;10.60;72.40
18365;DHT22;9309;52.126;11.616;2022-11-11T09:15:40;10.90;71.50
18365;DHT22;9309;52.126;11.616;2022-11-11T09:18:26;11.00;70.70
18365;DHT22;9309;52.126;11.616;2022-11-11T09:21:15;11.10;70.60
18365;DHT22;9309;52.126;11.616;2022-11-11T09:24:01;11.00;71.20
18365;DHT22;9309;52.126;11.616;2022-11-11T09:26:47;11.00;71.90
18365;DHT22;9309;52.126;11.616;2022-11-11T09:29:33;11.20;70.90
18365;DHT22;9309;52.126;11.616;2022-11-11T09:32:18;11.40;70.20
18365;DHT22;9309;52.126;11.616;2022-11-11T09:35:04;11.50;69.30
18365;DHT22;9309;52.126;11.616;2022-11-11T09:37:56;11.60;68.60
18365;DHT22;9309;52.126;11.616;2022-11-11T09:40:56;11.40;69.30
18365;DHT22;9309;52.126;11.616;2022-11-11T09:43:50;11.40;69.40
18365;DHT22;9309;52.126;11.616;2022-11-11T09:46:44;11.60;68.90
18365;DHT22;9309;52.126;11.616;2022-11-11T09:49:48;11.60;68.80
18365;DHT22;9309;52.126;11.616;2022-11-11T09:52:38;11.60;70.00
18365;DHT22;9309;52.126;11.616;2022-11-11T09:55:30;11.80;69.10
18365;DHT22;9309;52.126;11.616;2022-11-11T09:58:19;12.10;68.50
18365;DHT22;9309;52.126;11.616;2022-11-11T10:01:08;12.20;68.20
18365;DHT22;9309;52.126;11.616;2022-11-11T10:03:58;12.40;67.50
18365;DHT22;9309;52.126;11.616;2022-11-11T10:06:46;12.60;66.40
18365;DHT22;9309;52.126;11.616;2022-11-11T10:09:37;12.60;67.00
18365;DHT22;9309;52.126;11.616;2022-11-11T10:12:34;12.70;66.20
18365;DHT22;9309;52.126;11.616;2022-11-11T10:15:21;12.60;66.80
18365;DHT22;9309;52.126;11.616;2022-11-11T10:18:24;12.60;66.70
18365;DHT22;9309;52.126;11.616;2022-11-11T10:21:15;12.70;67.10
18365;DHT22;9309;52.126;11.616;2022-11-11T10:24:05;12.60;66.90
18365;DHT22;9309;52.126;11.616;2022-11-11T10:26:55;12.80;66.90
18365;DHT22;9309;52.126;11.616;2022-11-11T10:29:44;12.60;66.90
18365;DHT22;9309;52.126;11.616;2022-11-11T10:32:32;12.20;66.90
18365;DHT22;9309;52.126;11.616;2022-11-11T10:35:20;12.20;68.00
18365;DHT22;9309;52.126;11.616;2022-11-11T10:38:20;12.20;69.10
18365;DHT22;9309;52.126;11.616;2022-11-11T10:41:12;12.30;68.70
18365;DHT22;9309;52.126;11.616;2022-11-11T10:43:58;12.60;67.80
18365;DHT22;9309;52.126;11.616;2022-11-11T10:46:51;13.00;67.10
18365;DHT22;9309;52.126;11.616;2022-11-11T10:49:42;13.40;65.80
18365;DHT22;9309;52.126;11.616;2022-11-11T10:52:34;13.60;64.60
18365;DHT22;9309;52.126;11.616;2022-11-11T10:55:24;13.60;64.40
18365;DHT22;9309;52.126;11.616;2022-11-11T10:58:15;13.40;64.80
18365;DHT22;9309;52.126;11.616;2022-11-11T11:01:07;13.60;64.80
18365;DHT22;9309;52.126;11.616;2022-11-11T11:03:58;13.90;62.80
18365;DHT22;9309;52.126;11.616;2022-11-11T11:06:46;13.60;63.60
18365;DHT22;9309;52.126;11.616;2022-11-11T11:09:37;13.20;65.20
18365;DHT22;9309;52.126;11.616;2022-11-11T11:12:28;13.40;65.40
18365;DHT22;9309;52.126;11.616;2022-11-11T11:15:20;13.00;66.80
18365;DHT22;9309;52.126;11.616;2022-11-11T11:18:08;13.00;66.20
18365;DHT22;9309;52.126;11.616;2022-11-11T11:20:59;13.20;66.00
18365;DHT22;9309;52.126;11.616;2022-11-11T11:23:45;13.70;64.30
18365;DHT22;9309;52.126;11.616;2022-11-11T11:26:42;14.00;63.60
18365;DHT22;9309;52.126;11.616;2022-11-11T11:29:30;14.20;62.80
18365;DHT22;9309;52.126;11.616;2022-11-11T11:32:18;14.20;62.60
18365;DHT22;9309;52.126;11.616;2022-11-11T11:35:05;13.80;63.80
18365;DHT22;9309;52.126;11.616;2022-11-11T11:37:51;13.50;64.30
18365;DHT22;9309;52.126;11.616;2022-11-11T11:40:45;13.30;65.90
18365;DHT22;9309;52.126;11.616;2022-11-11T11:43:33;13.40;66.90
18365;DHT22;9309;52.126;11.616;2022-11-11T11:46:27;13.40;65.80
18365;DHT22;9309;52.126;11.616;2022-11-11T11:49:19;13.80;65.20
18365;DHT22;9309;52.126;11.616;2022-11-11T11:52:14;14.00;62.70
18365;DHT22;9309;52.126;11.616;2022-11-11T11:55:09;13.80;63.20
18365;DHT22;9309;52.126;11.616;2022-11-11T11:58:08;13.70;63.60
18365;DHT22;9309;52.126;11.616;2022-11-11T12:01:02;13.40;64.90
18365;DHT22;9309;52.126;11.616;2022-11-11T12:04:11;13.50;65.30
18365;DHT22;9309;52.126;11.616;2022-11-11T12:07:08;13.80;65.20
18365;DHT22;9309;52.126;11.616;2022-11-11T12:10:02;13.80;65.10
18365;DHT22;9309;52.126;11.616;2022-11-11T12:12:57;14.00;64.90
18365;DHT22;9309;52.126;11.616;2022-11-11T12:15:51;14.50;62.60
18365;DHT22;9309;52.126;11.616;2022-11-11T12:19:04;14.70;61.10
18365;DHT22;9309;52.126;11.616;2022-11-11T12:21:57;14.80;60.90
18365;DHT22;9309;52.126;11.616;2022-11-11T12:24:52;14.90;60.40
18365;DHT22;9309;52.126;11.616;2022-11-11T12:34:19;15.10;60.50
18365;DHT22;9309;52.126;11.616;2022-11-11T12:37:13;15.30;57.40
18365;DHT22;9309;52.126;11.616;2022-11-11T12:40:14;15.30;58.10
18365;DHT22;9309;52.126;11.616;2022-11-11T12:43:09;15.50;57.40
18365;DHT22;9309;52.126;11.616;2022-11-11T12:46:04;15.70;56.20
18365;DHT22;9309;52.126;11.616;2022-11-11T12:48:56;15.80;55.90
18365;DHT22;9309;52.126;11.616;2022-11-11T12:51:55;16.00;54.60
18365;DHT22;9309;52.126;11.616;2022-11-11T12:54:54;15.90;52.60
18365;DHT22;9309;52.126;11.616;2022-11-11T12:57:55;16.10;52.00
18365;DHT22;9309;52.126;11.616;2022-11-11T13:00:50;16.30;52.00
18365;DHT22;9309;52.126;11.616;2022-11-11T13:03:55;16.40;50.60
18365;DHT22;9309;52.126;11.616;2022-11-11T13:06:59;16.40;50.10
18365;DHT22;9309;52.126;11.616;2022-11-11T13:13:05;16.20;49.70
18365;DHT22;9309;52.126;11.616;2022-11-11T13:15:54;16.10;50.10
18365;DHT22;9309;52.126;11.616;2022-11-11T13:18:44;16.00;48.90
18365;DHT22;9309;52.126;11.616;2022-11-11T13:21:39;16.10;49.60
18365;DHT22;9309;52.126;11.616;2022-11-11T13:24:27;16.10;49.10
18365;DHT22;9309;52.126;11.616;2022-11-11T13:27:19;16.10;49.40
18365;DHT22;9309;52.126;11.616;2022-11-11T13:30:40;16.00;49.90
18365;DHT22;9309;52.126;11.616;2022-11-11T13:33:36;15.90;50.70
18365;DHT22;9309;52.126;11.616;2022-11-11T13:36:26;16.00;50.40
18365;DHT22;9309;52.126;11.616;2022-11-11T13:39:22;16.10;50.00
18365;DHT22;9309;52.126;11.616;2022-11-11T13:42:12;16.30;50.20
18365;DHT22;9309;52.126;11.616;2022-11-11T13:45:05;16.50;50.40
18365;DHT22;9309;52.126;11.616;2022-11-11T13:47:54;16.80;49.80
18365;DHT22;9309;52.126;11.616;2022-11-11T13:50:40;16.60;50.60
18365;DHT22;9309;52.126;11.616;2022-11-11T13:53:27;17.20;48.50
18365;DHT22;9309;52.126;11.616;2022-11-11T13:56:21;18.00;46.70
18365;DHT22;9309;52.126;11.616;2022-11-11T13:59:19;18.70;45.00
18365;DHT22;9309;52.126;11.616;2022-11-11T14:02:27;19.60;43.80
18365;DHT22;9309;52.126;11.616;2022-11-11T14:05:21;20.00;43.60
18365;DHT22;9309;52.126;11.616;2022-11-11T14:11:34;20.10;43.00
18365;DHT22;9309;52.126;11.616;2022-11-11T14:14:44;18.80;45.90
18365;DHT22;9309;52.126;11.616;2022-11-11T14:17:30;18.00;48.00
18365;DHT22;9309;52.126;11.616;2022-11-11T14:20:35;17.50;49.30
18365;DHT22;9309;52.126;11.616;2022-11-11T14:23:31;16.80;50.60
18365;DHT22;9309;52.126;11.616;2022-11-11T14:26:27;16.40;50.60
18365;DHT22;9309;52.126;11.616;2022-11-11T14:29:18;16.10;51.20
18365;DHT22;9309;52.126;11.616;2022-11-11T14:35:34;15.80;52.80
18365;DHT22;9309;52.126;11.616;2022-11-11T14:38:44;15.50;52.80
18365;DHT22;9309;52.126;11.616;2022-11-11T14:41:44;15.20;53.50
18365;DHT22;9309;52.126;11.616;2022-11-11T14:44:40;15.10;54.30
18365;DHT22;9309;52.126;11.616;2022-11-11T14:47:34;15.20;53.80
18365;DHT22;9309;52.126;11.616;2022-11-11T14:50:46;15.00;54.00
18365;DHT22;9309;52.126;11.616;2022-11-11T14:53:35;14.90;54.40
18365;DHT22;9309;52.126;11.616;2022-11-11T14:56:23;14.80;55.00
18365;DHT22;9309;52.126;11.616;2022-11-11T14:59:11;14.70;55.60
18365;DHT22;9309;52.126;11.616;2022-11-11T15:02:00;14.70;55.30
18365;DHT22;9309;52.126;11.616;2022-11-11T15:04:46;14.50;56.60
18365;DHT22;9309;52.126;11.616;2022-11-11T15:07:51;14.50;56.60
18365;DHT22;9309;52.126;11.616;2022-11-11T15:10:50;14.30;57.30
18365;DHT22;9309;52.126;11.616;2022-11-11T15:14:03;14.20;58.50
18365;DHT22;9309;52.126;11.616;2022-11-11T15:17:04;14.10;59.10
18365;DHT22;9309;52.126;11.616;2022-11-11T15:20:20;13.90;59.20
18365;DHT22;9309;52.126;11.616;2022-11-11T15:23:14;13.70;60.00
18365;DHT22;9309;52.126;11.616;2022-11-11T15:26:08;13.40;61.40
18365;DHT22;9309;52.126;11.616;2022-11-11T15:29:08;13.10;62.20
18365;DHT22;9309;52.126;11.616;2022-11-11T15:32:01;13.00;62.50
18365;DHT22;9309;52.126;11.616;2022-11-11T15:34:55;13.00;62.30
18365;DHT22;9309;52.126;11.616;2022-11-11T15:37:46;12.90;63.40
18365;DHT22;9309;52.126;11.616;2022-11-11T15:40:43;12.80;63.80
18365;DHT22;9309;52.126;11.616;2022-11-11T15:43:31;12.80;64.80
18365;DHT22;9309;52.126;11.616;2022-11-11T15:46:22;12.60;65.90
18365;DHT22;9309;52.126;11.616;2022-11-11T15:49:12;12.50;65.80
18365;DHT22;9309;52.126;11.616;2022-11-11T15:51:59;12.40;66.30
18365;DHT22;9309;52.126;11.616;2022-11-11T15:54:45;12.30;67.20
18365;DHT22;9309;52.126;11.616;2022-11-11T15:57:31;12.10;68.00
18365;DHT22;9309;52.126;11.616;2022-11-11T16:00:28;12.00;68.20
18365;DHT22;9309;52.126;11.616;2022-11-11T16:03:16;12.00;68.10
18365;DHT22;9309;52.126;11.616;2022-11-11T16:06:06;11.90;68.40
18365;DHT22;9309;52.126;11.616;2022-11-11T16:08:54;11.80;68.80
18365;DHT22;9309;52.126;11.616;2022-11-11T16:11:40;11.60;70.60
18365;DHT22;9309;52.126;11.616;2022-11-11T16:14:30;11.40;70.90
18365;DHT22;9309;52.126;11.616;2022-11-11T16:17:17;11.10;72.00
18365;DHT22;9309;52.126;11.616;2022-11-11T16:20:04;11.00;72.80
18365;DHT22;9309;52.126;11.616;2022-11-11T16:22:52;11.10;72.10
18365;DHT22;9309;52.126;11.616;2022-11-11T16:25:41;11.10;72.00
18365;DHT22;9309;52.126;11.616;2022-11-11T16:28:26;11.10;72.10
18365;DHT22;9309;52.126;11.616;2022-11-11T16:31:20;11.00;72.70
18365;DHT22;9309;52.126;11.616;2022-11-11T16:34:41;10.80;74.10
18365;DHT22;9309;52.126;11.616;2022-11-11T16:37:27;10.90;73.70
18365;DHT22;9309;52.126;11.616;2022-11-11T16:44:27;10.60;75.00
18365;DHT22;9309;52.126;11.616;2022-11-11T16:47:39;10.70;74.50
18365;DHT22;9309;52.126;11.616;2022-11-11T16:50:26;10.60;75.40
18365;DHT22;9309;52.126;11.616;2022-11-11T16:53:24;10.40;76.50
18365;DHT22;9309;52.126;11.616;2022-11-11T16:56:18;10.20;77.00
18365;DHT22;9309;52.126;11.616;2022-11-11T16:59:08;9.90;77.90
18365;DHT22;9309;52.126;11.616;2022-11-11T17:01:54;9.80;78.90
18365;DHT22;9309;52.126;11.616;2022-11-11T17:04:47;9.70;79.30
18365;DHT22;9309;52.126;11.616;2022-11-11T17:07:34;9.80;78.80
18365;DHT22;9309;52.126;11.616;2022-11-11T17:10:21;9.90;78.50
18365;DHT22;9309;52.126;11.616;2022-11-11T17:13:06;9.90;78.10
18365;DHT22;9309;52.126;11.616;2022-11-11T17:15:54;9.70;79.10
18365;DHT22;9309;52.126;11.616;2022-11-11T17:18:41;9.60;79.30
18365;DHT22;9309;52.126;11.616;2022-11-11T17:21:27;9.60;79.40
18365;DHT22;9309;52.126;11.616;2022-11-11T17:24:12;9.70;79.00
18365;DHT22;9309;52.126;11.616;2022-11-11T17:26:57;9.80;78.70
18365;DHT22;9309;52.126;11.616;2022-11-11T17:29:43;9.80;78.60
18365;DHT22;9309;52.126;11.616;2022-11-11T17:32:30;9.80;78.30
18365;DHT22;9309;52.126;11.616;2022-11-11T17:35:16;9.60;80.20
18365;DHT22;9309;52.126;11.616;2022-11-11T17:38:01;9.60;79.80
18365;DHT22;9309;52.126;11.616;2022-11-11T17:40:47;9.40;79.80
18365;DHT22;9309;52.126;11.616;2022-11-11T17:43:33;9.30;77.70
18365;DHT22;9309;52.126;11.616;2022-11-11T17:46:18;9.30;77.40
18365;DHT22;9309;52.126;11.616;2022-11-11T17:49:05;9.30;78.20
18365;DHT22;9309;52.126;11.616;2022-11-11T17:51:51;9.20;78.40
18365;DHT22;9309;52.126;11.616;2022-11-11T17:54:36;9.40;78.00
18365;DHT22;9309;52.126;11.616;2022-11-11T17:57:21;9.40;77.60
18365;DHT22;9309;52.126;11.616;2022-11-11T18:00:08;9.40;77.80
18365;DHT22;9309;52.126;11.616;2022-11-11T18:02:54;9.50;77.00
18365;DHT22;9309;52.126;11.616;2022-11-11T18:05:41;9.40;77.50
18365;DHT22;9309;52.126;11.616;2022-11-11T18:08:28;9.40;76.80
18365;DHT22;9309;52.126;11.616;2022-11-11T18:11:13;9.30;77.20
18365;DHT22;9309;52.126;11.616;2022-11-11T18:13:58;9.40;77.10
18365;DHT22;9309;52.126;11.616;2022-11-11T18:16:44;9.40;76.90
18365;DHT22;9309;52.126;11.616;2022-11-11T18:19:29;9.30;76.50
18365;DHT22;9309;52.126;11.616;2022-11-11T18:22:23;9.10;76.60
18365;DHT22;9309;52.126;11.616;2022-11-11T18:25:08;9.10;76.90
18365;DHT22;9309;52.126;11.616;2022-11-11T18:27:54;9.20;76.80
18365;DHT22;9309;52.126;11.616;2022-11-11T18:30:39;9.10;77.40
18365;DHT22;9309;52.126;11.616;2022-11-11T18:33:25;9.10;76.60